Alledonia, OH (43902)

1:50 PM EDT on July 12, 2014 (GMT -0400)
Jerusalem (KOHJERUS2) Elev 1253 ft | 39.86 °N, 81.11 °W | Change Station

Current weather conditions updated 20 seconds ago

Clear
Clear
84.2 °F
Feels Like 86 °F
N
5.4
Wind Variable Wind from SW
Gusts 11.0 mph

Today is forecast to be Warmer than yesterday.

Today
High -- | Low -- °F
--% Chance of Precip.
Yesterday
High -- | Low -- °F
Precip. -- in
6:05 AM 8:52 PM
Full, 100% visible
Pressure 30.19 in
Visibility 10.0 miles
Clouds Clear
Heat Index 86 °F
Dew Point 65 °F
Humidity 52%
Rainfall 0.00 in
Snow Depth Not available.
UV 10 out of 12
Pollen 3.50 out of 12
Air Quality Not available.
Flu Activity Sporadic
METAR KHLG 121553Z 20009KT 10SM CLR 28/14 A3020 RMK AO2 SLP221 T02780144

More Conditions Fewer Conditions

Pressure 30.19 in
Visibility 10.0 miles
Clouds Clear
Heat Index 86 °F
Dew Point 65 °F
Humidity 52%
Rainfall 0.00 in
Snow Depth Not available.
UV 10 out of 12
Pollen 3.50 out of 12
Air Quality Not available.
Flu Activity Sporadic
METAR KHLG 121553Z 20009KT 10SM CLR 28/14 A3020 RMK AO2 SLP221 T02780144

More Conditions Fewer Conditions

10-Day Weather Forecast

Almanac

Astronomy

Jul. 12, 2014 Rise Set
Actual Time 6:05 AM EDT 8:52 PM EDT
Civil Twilight 5:33 AM EDT 9:24 PM EDT
Nautical Twilight 4:53 AM EDT 10:04 PM EDT
Astronomical Twilight 4:07 AM EDT 10:50 PM EDT
Moon 8:53 PM EDT 6:23 AM EDT
Length of Visible Light 15h 51m
Length of Day
14h 47m
Tomorrow will be 1m 13s shorter.
Full, 100% of the Moon is Illuminated
Today
Full
Jul 18
Last Quarter
Jul 26
New
Aug 3
First Quarter
Aug 10
Full

Today's Extremes

State Highs State Lows

Community

WunderPhotos

Upload Photos

1,732,898 photos uploaded!

WunderBlogs® & News

By Dr. Jeff Masters
Director of Meteorology, Weather Underground
By Kari Strenfel
Meteorologist, Weather Underground
By Christopher C. Burt
Weather Historian, Weather Underground
July 12, 2014
July 12, 2014
July 12, 2014

Nearby

Snow Depth

Station Depth Elevation
No new snow has been reported.

Earthquake Activity

City Distance Mag. Time & Date
No recent earthquake activity has been reported nearby.
Minimum magnitude displayed is 2.5.

Coastal Water Temperatures

Place Temperature
No Stations Reporting

Nearby Weather Stations

Station Location Temp. Heat Index Dew Point Humidity Wind Precip. Elev Updated Type
Jerusalem, Jerusalem, OH 84.2 °F 86 °F 65 °F 52% SW  at  5.4 mph 0.00 in / hr 1253 ft 1:49 PM EDT Rapid Fire
Shadyside, Ohio, Shadyside, OH 87.9 °F 90 °F 66 °F 48% East  at  6.0 mph 0.00 in / hr 669 ft 1:50 PM EDT Rapid Fire
Crawford Heights, Martins Ferry, OH 89.8 °F 92 °F 66 °F 45% West  at  5.8 mph - / hr 1109 ft 1:44 PM EDT Normal
Whitmar Hills, Wheeling, WV 83.6 °F 87 °F 68 °F 59% ESE  at  1.0 mph 0.00 in / hr 1060 ft 1:45 PM EDT Normal
Kidwell, WV, Sistersville, WV 84.7 °F 87 °F 66 °F 54% WSW  at  3.7 mph - / hr 738 ft 1:39 PM EDT Normal

Show More Stations Show Fewer Stations